Time;durP1;ratioP1;P1;durP2;ratioP2;P2;SDS_P1;SDS_P2;PMS_P1;PMS_P2;Temp;Humidity;BMP_temperature;BMP_pressure;BME280_temperature;BME280_humidity;BME280_pressure;Samples;Min_cycle;Max_cycle;Signal;HPM_P1;HPM_P2
2022/10/07 00:01:12;;;;;;;17.30;12.40;;;13.40;80.10;;;;;;5072837;28;20024;-15
2022/10/07 00:03:39;;;;;;;21.40;13.23;;;13.40;80.20;;;;;;5073483;28;20028;-16
2022/10/07 00:06:14;;;;;;;25.13;17.40;;;13.40;80.30;;;;;;5073151;28;20021;-16
2022/10/07 00:08:43;;;;;;;19.92;13.43;;;13.30;80.20;;;;;;5073098;28;20029;-15
2022/10/07 00:11:12;;;;;;;23.75;16.30;;;13.40;80.40;;;;;;5072535;28;20020;-15
2022/10/07 00:13:39;;;;;;;22.23;15.75;;;13.30;80.40;;;;;;5073129;28;20036;-15
2022/10/07 00:16:08;;;;;;;19.58;13.32;;;13.30;80.50;;;;;;5073046;28;20025;-17
2022/10/07 00:18:36;;;;;;;22.55;13.07;;;13.20;80.70;;;;;;5073457;28;20457;-16
2022/10/07 00:21:07;;;;;;;18.73;13.77;;;13.20;80.30;;;;;;5054674;28;20541;-17
2022/10/07 00:23:35;;;;;;;20.63;12.48;;;13.20;80.30;;;;;;5073120;28;20128;-14
2022/10/07 00:26:02;;;;;;;16.00;11.88;;;13.20;80.30;;;;;;5072759;28;20032;-16
2022/10/07 00:28:29;;;;;;;21.85;14.18;;;13.20;80.30;;;;;;5072689;28;20093;-15
2022/10/07 00:31:04;;;;;;;20.02;13.55;;;13.20;80.30;;;;;;5054752;28;20024;-15
2022/10/07 00:33:32;;;;;;;16.80;11.68;;;13.20;80.50;;;;;;5073002;28;20055;-17
2022/10/07 00:35:58;;;;;;;17.85;10.98;;;13.20;80.50;;;;;;5071387;28;20468;-16
2022/10/07 00:38:24;;;;;;;13.93;9.75;;;13.20;80.10;;;;;;5072860;28;20025;-17
2022/10/07 00:40:51;;;;;;;14.57;9.52;;;13.30;80.10;;;;;;5072521;28;20108;-16
2022/10/07 00:43:23;;;;;;;14.00;9.75;;;13.30;79.90;;;;;;5072498;28;20069;-17
2022/10/07 00:45:50;;;;;;;13.55;9.52;;;13.40;79.80;;;;;;5072553;28;20036;-17
2022/10/07 00:48:23;;;;;;;12.20;8.63;;;13.40;79.80;;;;;;5072984;28;20036;-17
2022/10/07 00:50:51;;;;;;;10.43;7.50;;;13.40;79.60;;;;;;5072554;28;20499;-16
2022/10/07 00:53:18;;;;;;;13.57;9.13;;;13.40;79.50;;;;;;5072472;28;20499;-16
2022/10/07 00:55:44;;;;;;;13.05;8.52;;;13.40;79.40;;;;;;5072256;28;20044;-15
2022/10/07 00:58:11;;;;;;;12.45;8.50;;;13.50;79.40;;;;;;5072718;28;20113;-15
2022/10/07 01:00:38;;;;;;;13.30;8.55;;;13.50;79.70;;;;;;5072593;28;20028;-15
2022/10/07 01:03:04;;;;;;;12.80;8.30;;;13.50;79.30;;;;;;5072441;28;20025;-17
2022/10/07 01:05:31;;;;;;;12.45;8.60;;;13.50;79.40;;;;;;5072560;28;20376;-17
2022/10/07 01:07:58;;;;;;;11.07;7.32;;;13.50;79.40;;;;;;5072587;28;20033;-17
2022/10/07 01:10:32;;;;;;;11.10;7.13;;;13.60;79.20;;;;;;5075461;28;20104;-17
2022/10/07 01:13:07;;;;;;;;;;;13.50;79.10;;;;;;5076323;28;20027;-15
2022/10/07 01:15:58;;;;;;;14.20;8.43;;;13.50;79.70;;;;;;5075847;28;20435;-15
2022/10/07 01:18:45;;;;;;;14.55;8.50;;;13.50;79.30;;;;;;5076052;28;20028;-16
2022/10/07 01:21:37;;;;;;;11.10;6.72;;;13.40;79.10;;;;;;5075849;28;20021;-15
2022/10/07 01:24:14;;;;;;;14.35;8.55;;;13.40;79.10;;;;;;5075710;28;20490;-15
2022/10/07 01:26:51;;;;;;;14.13;8.82;;;13.40;79.20;;;;;;5075714;28;20119;-17
2022/10/07 01:29:38;;;;;;;12.48;8.13;;;13.30;79.30;;;;;;5075887;28;20502;-17
2022/10/07 01:32:36;;;;;;;10.07;6.88;;;13.20;79.60;;;;;;5075731;28;20476;-16
2022/10/07 01:35:07;;;;;;;10.13;7.13;;;13.20;79.40;;;;;;5013667;28;20600;-15
2022/10/07 01:37:39;;;;;;;12.35;7.78;;;13.20;79.30;;;;;;5013717;28;20049;-15
2022/10/07 01:40:13;;;;;;;12.70;8.43;;;13.20;79.30;;;;;;5014046;28;20062;-15
2022/10/07 01:42:40;;;;;;;11.50;8.13;;;13.20;79.60;;;;;;5013624;28;20030;-16
2022/10/07 01:45:10;;;;;;;12.15;6.90;;;13.10;79.50;;;;;;5013160;28;20038;-15
2022/10/07 01:47:35;;;;;;;8.32;6.05;;;13.10;79.60;;;;;;5013499;28;20064;-15
2022/10/07 01:50:01;;;;;;;11.70;7.20;;;13.00;79.60;;;;;;5013821;28;20026;-15
2022/10/07 01:52:54;;;;;;;14.32;8.73;;;13.00;79.70;;;;;;5013613;28;20040;-15
2022/10/07 01:56:04;;;;;;;12.02;8.38;;;12.90;79.80;;;;;;5004871;28;20050;-16
2022/10/07 01:58:52;;;;;;;8.05;5.30;;;12.90;80.00;;;;;;5013289;28;20084;-15
2022/10/07 02:01:42;;;;;;;10.65;7.35;;;12.80;80.00;;;;;;5013098;28;20121;-15
2022/10/07 02:04:23;;;;;;;9.02;5.82;;;12.80;80.10;;;;;;5013263;28;20026;-16
2022/10/07 02:07:05;;;;;;;10.93;6.72;;;12.70;80.20;;;;;;5012777;28;20414;-15
2022/10/07 02:09:50;;;;;;;8.55;6.38;;;12.70;80.10;;;;;;5016199;28;20256;-16
2022/10/07 02:12:52;;;;;;;11.00;7.45;;;12.70;80.10;;;;;;5074664;28;20029;-17
2022/10/07 02:15:26;;;;;;;13.05;7.97;;;12.70;80.20;;;;;;5074691;28;20495;-15
2022/10/07 02:17:57;;;;;;;12.82;8.23;;;12.70;80.20;;;;;;5074998;28;20388;-15
2022/10/07 02:20:27;;;;;;;10.00;6.53;;;12.60;80.20;;;;;;5074801;28;20029;-16
2022/10/07 02:22:57;;;;;;;9.48;6.43;;;12.60;80.40;;;;;;5074298;28;20028;-16
2022/10/07 02:25:26;;;;;;;9.18;6.20;;;12.70;80.20;;;;;;5074956;28;20407;-17
2022/10/07 02:27:53;;;;;;;11.43;7.18;;;12.70;80.10;;;;;;5074806;28;20562;-15
2022/10/07 02:30:21;;;;;;;10.48;6.88;;;12.70;80.10;;;;;;5074386;28;20096;-18
2022/10/07 02:32:53;;;;;;;9.15;6.00;;;12.80;80.00;;;;;;5074283;28;20043;-16
2022/10/07 02:35:28;;;;;;;9.10;6.13;;;12.80;79.80;;;;;;5074797;28;20476;-17
2022/10/07 02:37:58;;;;;;;10.23;5.50;;;12.80;79.80;;;;;;5074487;28;20031;-17
2022/10/07 02:40:31;;;;;;;9.02;5.80;;;12.90;79.70;;;;;;5074226;28;20021;-17
2022/10/07 02:43:08;;;;;;;9.67;5.97;;;12.90;79.50;;;;;;5073909;28;20029;-15
2022/10/07 02:46:11;;;;;;;12.05;5.80;;;12.90;79.50;;;;;;5074290;28;20279;-17
2022/10/07 02:48:43;;;;;;;10.15;5.93;;;12.90;79.40;;;;;;5074260;28;20052;-17
2022/10/07 02:51:17;;;;;;;12.00;7.18;;;12.90;79.20;;;;;;5074099;28;20035;-17
2022/10/07 02:53:48;;;;;;;10.10;5.78;;;12.90;79.20;;;;;;5073940;28;20108;-15
2022/10/07 02:56:17;;;;;;;11.63;6.80;;;12.90;79.20;;;;;;5073714;28;20453;-15
2022/10/07 02:58:45;;;;;;;10.77;6.65;;;12.90;79.20;;;;;;5083834;28;20028;-17
2022/10/07 03:01:16;;;;;;;8.25;5.80;;;12.90;79.30;;;;;;5093193;28;20144;-15
2022/10/07 03:03:44;;;;;;;10.20;5.93;;;12.90;79.10;;;;;;5094276;28;20024;-15
2022/10/07 03:06:16;;;;;;;9.82;5.40;;;12.90;79.20;;;;;;5094137;28;20113;-18
2022/10/07 03:08:43;;;;;;;10.63;5.30;;;12.90;79.20;;;;;;5093993;28;20055;-17
2022/10/07 03:11:09;;;;;;;11.63;6.10;;;12.90;79.30;;;;;;5093854;28;20028;-15
2022/10/07 03:13:35;;;;;;;7.25;5.13;;;12.90;79.10;;;;;;5094276;28;20058;-17
2022/10/07 03:16:04;;;;;;;9.20;6.72;;;13.00;79.00;;;;;;5094001;28;20028;-17
2022/10/07 03:18:31;;;;;;;9.68;6.45;;;12.90;79.00;;;;;;5093735;28;20030;-16
2022/10/07 03:21:01;;;;;;;8.65;5.90;;;13.00;79.00;;;;;;5093487;28;20078;-17
2022/10/07 03:23:29;;;;;;;10.10;6.25;;;13.00;78.90;;;;;;5093959;28;20038;-16
2022/10/07 03:25:57;;;;;;;9.02;6.07;;;13.00;78.90;;;;;;5093830;28;20020;-16
2022/10/07 03:28:26;;;;;;;10.43;7.13;;;13.00;79.00;;;;;;5093876;28;20032;-15
2022/10/07 03:30:53;;;;;;;8.98;6.18;;;13.00;78.90;;;;;;5093390;28;20023;-17
2022/10/07 03:33:24;;;;;;;9.48;6.45;;;13.00;78.80;;;;;;5093223;28;20429;-17
2022/10/07 03:35:50;;;;;;;8.45;5.97;;;13.00;79.10;;;;;;5093839;28;20039;-16
2022/10/07 03:38:16;;;;;;;8.13;5.35;;;13.10;78.80;;;;;;5093638;28;20028;-16
2022/10/07 03:40:43;;;;;;;9.50;6.28;;;13.00;78.80;;;;;;5093339;28;20051;-17
2022/10/07 03:43:09;;;;;;;8.35;5.55;;;13.00;78.60;;;;;;5093145;28;20487;-16
2022/10/07 03:45:43;;;;;;;10.00;5.57;;;13.00;78.80;;;;;;5093598;28;20065;-17
2022/10/07 03:48:09;;;;;;;;;;;13.00;78.60;;;;;;5093762;28;20526;-16
2022/10/07 03:50:35;;;;;;;8.63;5.20;;;13.00;78.70;;;;;;5093479;28;19942;-17
2022/10/07 03:53:01;;;;;;;12.13;5.45;;;13.00;78.70;;;;;;5093337;28;20124;-16
2022/10/07 03:55:27;;;;;;;9.90;5.40;;;13.00;78.70;;;;;;5092989;28;20492;-17
2022/10/07 03:57:53;;;;;;;9.15;5.18;;;13.00;78.70;;;;;;5093421;28;20034;-15
2022/10/07 04:00:22;;;;;;;10.07;4.95;;;13.00;78.70;;;;;;5093435;28;20095;-18
2022/10/07 04:02:49;;;;;;;9.35;6.13;;;12.90;78.60;;;;;;5093302;28;20099;-17
2022/10/07 04:05:17;;;;;;;7.18;5.10;;;12.90;78.80;;;;;;5093929;28;20047;-16
2022/10/07 04:07:44;;;;;;;8.60;5.35;;;12.90;78.80;;;;;;5093413;28;20028;-17
2022/10/07 04:10:13;;;;;;;7.15;4.82;;;12.90;78.80;;;;;;5093398;28;20107;-18
2022/10/07 04:12:39;;;;;;;7.85;4.95;;;12.90;78.60;;;;;;5093274;28;20028;-17
2022/10/07 04:15:05;;;;;;;7.43;4.70;;;12.90;78.80;;;;;;5093109;28;20379;-17
2022/10/07 04:17:31;;;;;;;7.50;4.97;;;12.80;78.70;;;;;;5092986;28;20036;-17
2022/10/07 04:19:57;;;;;;;8.35;5.22;;;12.70;78.80;;;;;;5093227;28;20119;-17
2022/10/07 04:22:24;;;;;;;8.23;5.22;;;12.60;79.00;;;;;;5093276;28;20052;-16
2022/10/07 04:27:36;;;;;;;9.52;6.00;;;12.50;79.50;;;;;;5093879;28;20556;-18
2022/10/07 04:30:03;;;;;;;5.97;4.65;;;12.50;79.50;;;;;;5093429;28;20067;-16
2022/10/07 04:32:30;;;;;;;5.97;4.28;;;12.40;79.70;;;;;;5093252;28;20020;-17
2022/10/07 04:34:56;;;;;;;9.80;5.70;;;12.40;79.50;;;;;;5092758;28;20078;-17
2022/10/07 04:37:22;;;;;;;9.45;6.00;;;12.40;79.50;;;;;;5093107;28;20028;-16
2022/10/07 04:39:48;;;;;;;9.10;5.75;;;12.30;79.70;;;;;;5093096;28;20021;-15
2022/10/07 04:44:58;;;;;;;9.63;4.88;;;12.30;79.70;;;;;;5095291;28;20047;-17
2022/10/07 04:47:24;;;;;;;8.13;4.63;;;12.30;79.80;;;;;;5096829;28;20503;-17
2022/10/07 04:49:52;;;;;;;15.38;6.93;;;12.30;79.70;;;;;;5096775;28;20033;-17
2022/10/07 04:52:19;;;;;;;8.65;5.07;;;12.30;79.80;;;;;;5096496;28;20373;-17
2022/10/07 04:54:46;;;;;;;10.70;6.32;;;12.40;80.10;;;;;;5096336;28;20048;-17
2022/10/07 04:57:15;;;;;;;9.40;5.80;;;12.40;79.60;;;;;;5096555;28;20077;-16
2022/10/07 04:59:41;;;;;;;8.73;5.28;;;12.40;79.60;;;;;;5096611;28;20395;-16
2022/10/07 05:02:07;;;;;;;9.10;5.80;;;12.40;79.50;;;;;;5078703;28;20024;-17
2022/10/07 05:04:33;;;;;;;8.98;5.35;;;12.50;79.50;;;;;;5096912;28;20028;-17
2022/10/07 05:06:59;;;;;;;7.85;5.35;;;12.50;79.50;;;;;;5095941;28;20024;-17
2022/10/07 05:09:25;;;;;;;11.30;6.63;;;12.50;79.50;;;;;;5096526;28;20076;-16
2022/10/07 05:11:54;;;;;;;9.50;6.00;;;12.50;79.30;;;;;;5096369;28;20391;-15
2022/10/07 05:14:21;;;;;;;11.60;7.07;;;12.50;79.30;;;;;;5096084;28;20047;-16
2022/10/07 05:16:51;;;;;;;10.43;6.40;;;12.50;79.40;;;;;;5096256;28;20102;-17
2022/10/07 05:19:18;;;;;;;8.90;6.07;;;12.50;79.40;;;;;;5095995;28;20020;-15
2022/10/07 05:21:45;;;;;;;12.85;7.53;;;12.50;79.70;;;;;;5095918;28;20467;-17
2022/10/07 05:24:11;;;;;;;10.15;6.40;;;12.50;79.40;;;;;;5096246;28;20020;-17
2022/10/07 05:26:37;;;;;;;12.02;7.50;;;12.50;79.30;;;;;;5095717;28;20205;-15
2022/10/07 05:29:03;;;;;;;9.50;6.00;;;12.60;79.40;;;;;;5096212;28;20063;-17
2022/10/07 05:31:29;;;;;;;9.32;5.80;;;12.60;79.50;;;;;;5096093;28;20387;-18
2022/10/07 05:33:55;;;;;;;8.00;5.63;;;12.60;79.30;;;;;;5245902;22;20048;-17
2022/10/07 05:36:21;;;;;;;11.32;6.78;;;12.60;79.30;;;;;;5116271;28;20390;-15
2022/10/07 05:38:47;;;;;;;9.32;6.18;;;12.60;79.20;;;;;;5116505;28;20114;-16
2022/10/07 05:41:13;;;;;;;11.00;6.57;;;12.70;79.20;;;;;;5116336;28;20102;-16
2022/10/07 05:43:46;;;;;;;9.23;5.53;;;12.60;79.30;;;;;;5115435;28;20374;-16
2022/10/07 05:46:14;;;;;;;13.00;6.60;;;12.70;79.20;;;;;;5116265;27;20016;-17
2022/10/07 05:48:45;;;;;;;10.30;6.00;;;12.70;79.30;;;;;;5116117;28;20036;-16
2022/10/07 05:51:12;;;;;;;12.75;8.02;;;12.80;79.10;;;;;;5116461;28;20038;-16
2022/10/07 05:53:40;;;;;;;18.25;10.00;;;12.80;79.40;;;;;;5115765;28;20399;-15
2022/10/07 05:56:11;;;;;;;15.23;8.18;;;12.90;79.40;;;;;;5115247;28;20016;-16
2022/10/07 05:58:38;;;;;;;16.80;12.05;;;13.00;79.50;;;;;;5115692;28;20067;-16
2022/10/07 06:01:06;;;;;;;18.50;11.43;;;13.10;79.50;;;;;;5116268;28;20019;-16
2022/10/07 06:03:32;;;;;;;14.45;9.63;;;13.20;79.60;;;;;;5115567;28;20151;-16
2022/10/07 06:05:59;;;;;;;18.95;11.43;;;13.40;79.60;;;;;;5114247;28;20024;-16
2022/10/07 06:08:26;;;;;;;21.35;12.43;;;13.50;79.60;;;;;;5115534;28;20106;-16
2022/10/07 06:13:37;;;;;;;18.90;13.00;;;13.90;79.60;;;;;;5115937;28;20039;-15
2022/10/07 06:16:05;;;;;;;18.52;10.85;;;14.00;79.50;;;;;;5115330;28;20027;-17
2022/10/07 06:18:31;;;;;;;20.33;14.30;;;14.20;79.50;;;;;;5115450;28;20111;-16
2022/10/07 06:20:59;;;;;;;17.90;11.45;;;14.40;79.30;;;;;;5115398;28;20035;-16
2022/10/07 06:23:27;;;;;;;15.70;10.73;;;14.50;79.20;;;;;;5115827;28;20020;-16
2022/10/07 06:25:58;;;;;;;14.10;9.77;;;14.70;79.10;;;;;;5115384;28;20031;-17
2022/10/07 06:28:25;;;;;;;15.57;9.80;;;14.90;78.80;;;;;;5115151;28;20024;-16
2022/10/07 06:30:51;;;;;;;12.50;8.55;;;15.10;78.70;;;;;;5113616;28;20020;-14
2022/10/07 06:33:18;;;;;;;13.43;10.55;;;15.40;78.40;;;;;;5115261;28;20028;-15
2022/10/07 06:35:45;;;;;;;17.70;13.18;;;15.60;78.20;;;;;;5114739;27;20486;-16
2022/10/07 06:38:11;;;;;;;14.13;8.25;;;15.90;78.10;;;;;;5114900;28;20028;-17
2022/10/07 06:40:38;;;;;;;11.13;6.82;;;16.10;77.80;;;;;;5114967;28;20020;-15
2022/10/07 06:43:05;;;;;;;14.65;9.02;;;16.40;77.50;;;;;;5114971;28;20050;-15
2022/10/07 06:45:32;;;;;;;12.50;7.55;;;16.60;77.00;;;;;;5114707;28;20052;-15
2022/10/07 06:47:59;;;;;;;13.38;7.97;;;16.80;76.30;;;;;;5114695;28;20035;-16
2022/10/07 06:50:25;;;;;;;11.43;6.57;;;17.00;76.10;;;;;;5114685;28;20019;-17
2022/10/07 06:52:51;;;;;;;10.40;6.53;;;17.30;75.80;;;;;;5114802;28;20077;-15
2022/10/07 06:55:17;;;;;;;10.25;6.70;;;17.50;75.60;;;;;;5114858;28;20028;-16
2022/10/07 06:57:44;;;;;;;12.50;7.28;;;17.80;75.10;;;;;;5115194;28;20382;-15
2022/10/07 07:00:12;;;;;;;8.95;6.10;;;18.00;74.40;;;;;;5114816;27;20112;-15
2022/10/07 07:02:38;;;;;;;8.13;5.47;;;18.20;73.60;;;;;;5114404;28;20391;-17
2022/10/07 07:05:07;;;;;;;9.70;5.93;;;18.50;73.30;;;;;;5114273;28;20028;-14
2022/10/07 07:07:33;;;;;;;8.75;5.97;;;18.60;72.20;;;;;;5114416;28;20036;-17
2022/10/07 07:09:59;;;;;;;9.68;5.68;;;18.80;71.70;;;;;;5114616;28;20028;-15
2022/10/07 07:12:25;;;;;;;6.63;4.75;;;18.90;70.70;;;;;;5114269;28;20406;-15
2022/10/07 07:14:51;;;;;;;10.25;5.53;;;19.00;70.70;;;;;;5114000;28;20478;-15
2022/10/07 07:17:17;;;;;;;7.65;4.80;;;19.10;70.50;;;;;;5112931;28;20482;-15
2022/10/07 07:19:44;;;;;;;8.70;4.50;;;19.40;70.10;;;;;;5114321;28;20019;-14
2022/10/07 07:22:10;;;;;;;8.85;4.53;;;19.60;69.50;;;;;;5114170;28;20026;-17
2022/10/07 07:24:37;;;;;;;12.90;7.68;;;19.90;68.70;;;;;;5114114;28;20478;-15
2022/10/07 07:27:03;;;;;;;19.10;12.98;;;20.00;66.80;;;;;;5114046;28;20093;-14
2022/10/07 07:29:29;;;;;;;18.88;12.07;;;20.20;67.10;;;;;;5114476;28;20019;-15
2022/10/07 07:31:56;;;;;;;12.43;6.70;;;20.20;66.90;;;;;;5114263;28;20111;-15
2022/10/07 07:34:24;;;;;;;9.27;6.13;;;20.30;67.20;;;;;;5113732;28;20047;-14
2022/10/07 07:36:51;;;;;;;9.65;5.30;;;20.40;66.70;;;;;;5114071;27;20103;-14
2022/10/07 07:39:18;;;;;;;7.63;5.47;;;20.50;66.90;;;;;;5114263;28;20026;-17
2022/10/07 07:41:46;;;;;;;6.32;4.60;;;20.70;65.70;;;;;;5114094;28;20050;-15
2022/10/07 07:44:15;;;;;;;8.13;4.13;;;20.70;65.10;;;;;;5113789;28;20466;-15
2022/10/07 07:46:46;;;;;;;6.82;4.00;;;20.70;64.80;;;;;;5113688;28;20030;-15
2022/10/07 07:49:13;;;;;;;9.30;4.28;;;20.80;65.40;;;;;;5113951;28;20027;-14
2022/10/07 07:51:41;;;;;;;8.15;4.22;;;21.00;64.90;;;;;;5113685;28;20051;-15
2022/10/07 07:54:08;;;;;;;10.35;4.82;;;21.20;64.10;;;;;;5113627;28;20059;-17
2022/10/07 07:56:35;;;;;;;7.10;4.35;;;21.30;64.10;;;;;;5113830;28;20103;-15
2022/10/07 07:59:02;;;;;;;8.20;5.13;;;21.40;63.80;;;;;;5112234;28;20032;-14
2022/10/07 08:01:30;;;;;;;8.00;4.63;;;21.40;63.20;;;;;;5113950;28;20055;-15
2022/10/07 08:03:57;;;;;;;5.75;3.90;;;21.50;63.10;;;;;;5113398;28;20035;-15
2022/10/07 08:06:26;;;;;;;6.78;4.72;;;21.60;63.20;;;;;;5113438;28;20027;-15
2022/10/07 08:08:57;;;;;;;8.15;5.50;;;21.70;63.60;;;;;;5113588;28;20031;-15
2022/10/07 08:11:23;;;;;;;8.90;5.80;;;21.90;63.50;;;;;;5113778;28;20027;-15
2022/10/07 08:13:50;;;;;;;8.32;4.82;;;22.20;62.70;;;;;;5114090;28;20027;-15
2022/10/07 08:16:18;;;;;;;10.57;7.38;;;22.40;62.90;;;;;;5113742;28;20028;-15
2022/10/07 08:18:48;;;;;;;7.70;5.78;;;22.70;61.20;;;;;;5115942;28;20027;-15
2022/10/07 08:21:17;;;;;;;7.18;4.88;;;23.00;60.40;;;;;;5118022;28;20031;-15
2022/10/07 08:23:43;;;;;;;7.90;4.80;;;23.30;59.30;;;;;;5118114;28;20102;-14
2022/10/07 08:26:09;;;;;;;9.55;4.28;;;23.60;59.00;;;;;;5117765;28;20080;-14
2022/10/07 08:28:36;;;;;;;5.95;4.20;;;23.80;58.60;;;;;;5117450;28;20066;-14
2022/10/07 08:31:05;;;;;;;8.43;3.80;;;24.00;57.40;;;;;;5117532;28;20020;-15
2022/10/07 08:33:38;;;;;;;8.70;3.90;;;24.20;57.80;;;;;;5117037;28;20497;-15
2022/10/07 08:36:06;;;;;;;11.55;5.35;;;24.50;55.60;;;;;;5117371;28;20493;-14
2022/10/07 08:38:35;;;;;;;7.10;4.00;;;24.70;54.70;;;;;;5117614;28;20027;-15
2022/10/07 08:41:22;;;;;;;7.70;4.13;;;24.90;54.90;;;;;;5116944;28;20031;-14
2022/10/07 08:43:50;;;;;;;8.65;4.10;;;25.10;52.40;;;;;;5117158;28;20382;-15
2022/10/07 08:46:21;;;;;;;10.52;4.50;;;25.30;52.90;;;;;;5117211;28;20116;-15
2022/10/07 08:48:54;;;;;;;7.15;4.20;;;25.40;52.30;;;;;;5116831;28;20032;-16
2022/10/07 08:51:27;;;;;;;6.97;3.70;;;25.70;52.00;;;;;;5117743;28;20471;-15
2022/10/07 08:53:57;;;;;;;11.82;4.75;;;25.90;52.00;;;;;;5117356;28;20106;-15
2022/10/07 08:56:25;;;;;;;8.80;4.50;;;26.00;50.80;;;;;;5116908;28;20039;-15
2022/10/07 08:58:51;;;;;;;7.18;3.85;;;26.20;50.30;;;;;;5116964;28;20031;-15
2022/10/07 09:01:40;;;;;;;9.07;4.05;;;26.20;49.80;;;;;;5116803;27;20115;-15
2022/10/07 09:04:14;;;;;;;7.90;4.15;;;26.20;47.70;;;;;;5116978;28;20161;-14
2022/10/07 09:06:57;;;;;;;9.98;3.67;;;26.30;48.80;;;;;;5115405;28;20436;-15
2022/10/07 09:09:55;;;;;;;8.77;3.65;;;26.20;46.70;;;;;;5116702;28;20032;-15
2022/10/07 09:12:42;;;;;;;12.07;3.92;;;26.30;48.80;;;;;;5116626;28;20475;-15
2022/10/07 09:15:38;;;;;;;8.85;3.70;;;26.40;46.80;;;;;;5116646;28;20123;-15
2022/10/07 09:18:21;;;;;;;5.38;3.15;;;26.40;47.80;;;;;;5116508;28;20074;-15
2022/10/07 09:20:55;;;;;;;6.22;3.40;;;26.40;48.30;;;;;;5116253;28;20032;-17
2022/10/07 09:23:29;;;;;;;5.78;3.25;;;26.40;47.90;;;;;;5116354;28;20024;-15
2022/10/07 09:25:56;;;;;;;8.30;3.30;;;26.70;47.30;;;;;;5116689;28;20027;-15
2022/10/07 09:28:32;;;;;;;7.22;2.95;;;27.00;46.80;;;;;;5116330;28;20069;-15
2022/10/07 09:30:59;;;;;;;6.43;3.50;;;27.30;46.00;;;;;;5114037;28;20020;-14
2022/10/07 09:33:28;;;;;;;9.77;3.30;;;27.20;45.30;;;;;;5116224;28;20529;-14
2022/10/07 09:35:57;;;;;;;6.38;2.60;;;27.40;46.70;;;;;;5116376;28;20040;-14
2022/10/07 09:38:29;;;;;;;4.22;2.70;;;27.50;47.00;;;;;;5116350;28;20027;-14
2022/10/07 09:41:15;;;;;;;7.32;3.17;;;27.70;45.50;;;;;;5116172;28;20061;-15
2022/10/07 09:44:09;;;;;;;7.95;3.03;;;27.80;45.60;;;;;;5116468;28;20502;-15
2022/10/07 09:46:52;;;;;;;8.18;3.13;;;27.80;43.20;;;;;;5115830;28;20439;-15
2022/10/07 09:49:27;;;;;;;7.47;2.80;;;27.90;44.00;;;;;;5116382;28;20024;-15
2022/10/07 09:52:05;;;;;;;8.75;3.00;;;28.00;41.20;;;;;;5115953;27;20257;-15
2022/10/07 09:54:34;;;;;;;8.95;3.00;;;28.00;41.70;;;;;;5115817;28;20027;-15
2022/10/07 09:57:03;;;;;;;6.63;2.85;;;28.00;44.00;;;;;;5116385;28;20015;-14
2022/10/07 09:59:35;;;;;;;9.75;2.95;;;28.20;44.20;;;;;;5115637;28;20062;-15
2022/10/07 10:02:13;;;;;;;5.15;2.70;;;28.30;44.00;;;;;;5116306;28;20061;-16
2022/10/07 10:04:48;;;;;;;5.15;2.40;;;28.40;43.00;;;;;;5115975;28;20417;-15
2022/10/07 10:07:27;;;;;;;5.90;2.90;;;28.40;41.10;;;;;;5115533;28;20055;-16
2022/10/07 10:10:02;;;;;;;5.78;2.70;;;28.40;41.00;;;;;;5115461;28;20544;-15
2022/10/07 10:12:36;;;;;;;10.30;2.95;;;28.60;42.60;;;;;;5115797;28;20375;-15
2022/10/07 10:15:23;;;;;;;13.85;3.45;;;28.80;42.30;;;;;;5115223;28;20063;-13
2022/10/07 10:17:50;;;;;;;4.03;2.60;;;28.90;41.70;;;;;;5115803;28;20098;-15
2022/10/07 10:20:34;;;;;;;7.40;2.67;;;29.00;42.30;;;;;;5115279;28;20016;-15
2022/10/07 10:23:22;;;;;;;6.03;2.67;;;29.20;41.50;;;;;;5115082;28;20023;-15
2022/10/07 10:26:29;;;;;;;10.20;2.90;;;29.40;42.40;;;;;;5115160;28;20105;-15
2022/10/07 10:29:15;;;;;;;6.30;2.85;;;29.70;41.00;;;;;;5072390;28;20036;-15
2022/10/07 10:32:12;;;;;;;5.22;2.70;;;30.00;39.20;;;;;;5072713;28;20494;-15
2022/10/07 10:35:12;;;;;;;4.47;2.70;;;30.20;40.40;;;;;;5072259;28;20091;-16
2022/10/07 10:37:49;;;;;;;6.38;2.85;;;30.50;40.00;;;;;;5072757;28;20120;-15
2022/10/07 10:40:40;;;;;;;4.72;2.53;;;30.70;40.10;;;;;;5072189;28;20573;-15
2022/10/07 10:43:23;;;;;;;6.80;2.63;;;31.00;37.00;;;;;;5071953;28;20020;-15
2022/10/07 10:45:55;;;;;;;;;;;31.20;37.80;;;;;;5072498;28;20123;-15
2022/10/07 10:48:41;;;;;;;4.55;2.60;;;31.30;36.10;;;;;;5071987;28;19915;-15
2022/10/07 10:51:32;;;;;;;6.25;2.78;;;31.40;39.10;;;;;;5072247;28;20108;-15
2022/10/07 10:54:17;;;;;;;6.82;2.63;;;31.90;37.70;;;;;;5072407;28;20031;-15
2022/10/07 10:56:52;;;;;;;5.25;2.53;;;32.00;36.90;;;;;;5072095;28;20036;-15
2022/10/07 10:59:54;;;;;;;5.32;2.60;;;32.30;36.10;;;;;;5055322;28;20039;-15
2022/10/07 11:02:31;;;;;;;8.57;2.90;;;32.10;34.40;;;;;;5071748;28;20104;-14
2022/10/07 11:05:16;;;;;;;5.10;2.40;;;32.00;36.50;;;;;;5090012;28;20032;-15
2022/10/07 11:07:46;;;;;;;4.45;2.58;;;31.70;36.50;;;;;;5114364;28;20035;-15
2022/10/07 11:10:47;;;;;;;5.28;2.58;;;31.70;37.20;;;;;;5113102;28;20469;-15
2022/10/07 11:13:31;;;;;;;4.57;2.20;;;31.90;36.50;;;;;;5106874;28;20027;-15
2022/10/07 11:16:04;;;;;;;7.15;2.53;;;32.00;37.10;;;;;;5114281;28;20114;-14
2022/10/07 11:18:46;;;;;;;7.63;2.55;;;32.40;35.10;;;;;;5114207;28;20020;-14
2022/10/07 11:21:34;;;;;;;4.72;2.50;;;32.50;36.00;;;;;;5113988;28;20028;-14
2022/10/07 11:24:28;;;;;;;5.28;2.55;;;32.60;35.10;;;;;;5114093;28;20055;-14
2022/10/07 11:27:15;;;;;;;5.45;2.45;;;32.80;35.50;;;;;;5112552;28;20440;-15
2022/10/07 11:29:48;;;;;;;4.38;2.85;;;33.00;35.60;;;;;;5114603;28;20023;-14
2022/10/07 11:32:19;;;;;;;7.78;2.80;;;33.40;33.90;;;;;;5114303;27;20035;-14
2022/10/07 11:34:58;;;;;;;7.93;2.80;;;33.70;33.20;;;;;;5114141;28;20055;-14
2022/10/07 11:37:35;;;;;;;6.07;2.92;;;33.60;32.60;;;;;;5114330;28;20500;-15
2022/10/07 11:40:06;;;;;;;7.72;2.47;;;33.30;34.10;;;;;;5114529;28;20366;-15
2022/10/07 11:42:41;;;;;;;5.53;2.38;;;33.30;32.60;;;;;;5114133;28;20019;-16
2022/10/07 11:45:19;;;;;;;4.03;2.40;;;33.20;33.80;;;;;;5113932;28;20023;-15
2022/10/07 11:47:53;;;;;;;6.70;2.28;;;33.20;33.80;;;;;;5114030;28;20031;-15
2022/10/07 11:50:28;;;;;;;7.50;2.45;;;33.20;34.70;;;;;;5114001;28;20019;-15
2022/10/07 11:53:00;;;;;;;4.95;2.75;;;33.50;34.50;;;;;;5113025;28;20020;-16
2022/10/07 11:55:46;;;;;;;7.07;2.50;;;33.50;33.80;;;;;;5113980;28;20032;-15
2022/10/07 11:58:35;;;;;;;10.70;2.72;;;33.10;34.50;;;;;;5113570;28;20482;-15
2022/10/07 12:01:29;;;;;;;5.25;2.42;;;33.30;33.70;;;;;;5113486;28;20027;-15
2022/10/07 12:04:14;;;;;;;4.70;2.40;;;33.10;33.30;;;;;;5113443;28;20433;-16
2022/10/07 12:07:18;;;;;;;7.32;2.60;;;33.40;34.50;;;;;;5113796;28;20067;-15
2022/10/07 12:10:02;;;;;;;6.18;2.45;;;33.70;33.30;;;;;;5112684;28;20063;-15
2022/10/07 12:12:44;;;;;;;4.40;2.20;;;34.00;33.20;;;;;;5113821;28;20081;-15
2022/10/07 12:15:32;;;;;;;4.50;2.13;;;33.90;32.90;;;;;;5113245;28;20064;-15
2022/10/07 12:18:03;;;;;;;4.90;2.17;;;34.00;33.90;;;;;;5113832;28;20047;-15
2022/10/07 12:20:43;;;;;;;3.70;2.05;;;34.30;33.90;;;;;;5113679;28;20107;-14
2022/10/07 12:23:21;;;;;;;3.50;2.17;;;34.60;33.50;;;;;;5113329;28;20020;-15
2022/10/07 12:25:49;;;;;;;8.98;2.25;;;34.90;31.50;;;;;;5113233;28;20032;-14
2022/10/07 12:28:25;;;;;;;3.58;2.22;;;34.80;31.90;;;;;;5113319;28;20056;-14
2022/10/07 12:30:54;;;;;;;6.07;2.33;;;34.60;32.80;;;;;;5113102;28;20034;-14
2022/10/07 12:33:44;;;;;;;5.13;2.28;;;34.50;33.10;;;;;;5113564;28;20020;-15
2022/10/07 12:36:24;;;;;;;6.78;2.30;;;34.40;32.50;;;;;;5113529;28;20518;-15
2022/10/07 12:38:58;;;;;;;6.18;2.40;;;34.40;33.40;;;;;;5113248;28;20016;-15
2022/10/07 12:41:25;;;;;;;6.13;2.60;;;34.50;33.00;;;;;;5113822;28;20028;-16
2022/10/07 12:44:21;;;;;;;6.70;2.50;;;34.80;32.50;;;;;;5113836;28;20035;-15
2022/10/07 12:47:00;;;;;;;6.45;2.25;;;34.90;31.60;;;;;;5113213;28;20120;-15
2022/10/07 12:49:36;;;;;;;5.03;2.60;;;34.60;32.20;;;;;;5113301;28;20027;-15
2022/10/07 12:52:11;;;;;;;7.63;2.40;;;34.70;31.40;;;;;;5113134;28;20032;-15
2022/10/07 12:54:52;;;;;;;6.50;2.30;;;34.90;31.80;;;;;;5113310;28;20092;-15
2022/10/07 12:57:32;;;;;;;4.93;2.42;;;35.20;31.80;;;;;;5113480;28;20028;-16
2022/10/07 13:00:14;;;;;;;4.90;2.30;;;35.50;31.70;;;;;;5113400;28;20475;-15
2022/10/07 13:03:17;;;;;;;5.20;2.30;;;35.80;31.00;;;;;;5113466;28;20094;-15
2022/10/07 13:06:01;;;;;;;4.68;2.22;;;36.00;30.20;;;;;;5115430;28;20024;-15
2022/10/07 13:08:41;;;;;;;7.28;2.60;;;36.40;31.30;;;;;;5117094;27;20035;-15
2022/10/07 13:11:29;;;;;;;5.60;2.35;;;36.80;30.10;;;;;;5116825;28;20145;-16
2022/10/07 13:14:13;;;;;;;3.70;2.15;;;36.50;30.30;;;;;;5115386;28;20031;-15
2022/10/07 13:16:57;;;;;;;5.72;2.45;;;36.20;30.80;;;;;;5116606;28;20031;-15
2022/10/07 13:19:29;;;;;;;2.38;2.10;;;36.20;31.20;;;;;;5116323;28;20111;-16
2022/10/07 13:22:06;;;;;;;4.33;2.17;;;36.40;31.00;;;;;;5115690;28;20367;-16